sensor_id;sensor_type;location;lat;lon;timestamp;pressure;altitude;pressure_sealevel;temperature;humidity
70730;BME280;58315;53.336;55.932;2023-04-29T00:00:05;99805.16;;;16.13;42.67
70730;BME280;58315;53.336;55.932;2023-04-29T00:02:40;99805.16;;;16.13;42.62
70730;BME280;58315;53.336;55.932;2023-04-29T00:05:07;99801.50;;;16.14;42.68
70730;BME280;58315;53.336;55.932;2023-04-29T00:07:34;99805.78;;;16.23;42.78
70730;BME280;58315;53.336;55.932;2023-04-29T00:10:01;99819.13;;;16.15;42.97
70730;BME280;58315;53.336;55.932;2023-04-29T00:12:30;99808.81;;;16.12;42.84
70730;BME280;58315;53.336;55.932;2023-04-29T00:14:59;99813.31;;;16.11;42.73
70730;BME280;58315;53.336;55.932;2023-04-29T00:17:32;99813.16;;;15.97;43.27
70730;BME280;58315;53.336;55.932;2023-04-29T00:19:58;99809.16;;;15.93;42.98
70730;BME280;58315;53.336;55.932;2023-04-29T00:22:24;99817.16;;;15.84;43.13
70730;BME280;58315;53.336;55.932;2023-04-29T00:24:50;99813.84;;;15.82;42.96
70730;BME280;58315;53.336;55.932;2023-04-29T00:27:18;99812.50;;;15.78;42.91
70730;BME280;58315;53.336;55.932;2023-04-29T00:29:45;99817.63;;;15.63;43.17
70730;BME280;58315;53.336;55.932;2023-04-29T00:32:11;99819.09;;;15.50;43.43
70730;BME280;58315;53.336;55.932;2023-04-29T00:34:37;99817.06;;;15.35;43.48
70730;BME280;58315;53.336;55.932;2023-04-29T00:37:03;99817.75;;;15.29;43.91
70730;BME280;58315;53.336;55.932;2023-04-29T00:39:30;99810.75;;;15.28;43.93
70730;BME280;58315;53.336;55.932;2023-04-29T00:41:56;99812.56;;;15.28;43.89
70730;BME280;58315;53.336;55.932;2023-04-29T00:44:22;99811.91;;;15.26;44.09
70730;BME280;58315;53.336;55.932;2023-04-29T00:46:48;99820.53;;;15.19;44.01
70730;BME280;58315;53.336;55.932;2023-04-29T00:49:15;99818.56;;;15.22;44.19
70730;BME280;58315;53.336;55.932;2023-04-29T00:51:43;99814.72;;;15.24;44.48
70730;BME280;58315;53.336;55.932;2023-04-29T00:54:09;99813.06;;;15.23;44.49
70730;BME280;58315;53.336;55.932;2023-04-29T00:56:36;99806.41;;;15.19;44.23
70730;BME280;58315;53.336;55.932;2023-04-29T00:59:04;99809.91;;;15.28;43.70
70730;BME280;58315;53.336;55.932;2023-04-29T01:01:31;99815.53;;;15.16;44.25
70730;BME280;58315;53.336;55.932;2023-04-29T01:03:57;99823.19;;;15.11;44.43
70730;BME280;58315;53.336;55.932;2023-04-29T01:14:32;99828.56;;;14.77;43.23
70730;BME280;58315;53.336;55.932;2023-04-29T01:17:09;99827.84;;;14.67;43.66
70730;BME280;58315;53.336;55.932;2023-04-29T01:22:11;99833.97;;;14.59;44.23
70730;BME280;58315;53.336;55.932;2023-04-29T01:24:40;99833.69;;;14.44;44.70
70730;BME280;58315;53.336;55.932;2023-04-29T01:27:23;99833.69;;;14.44;45.43
70730;BME280;58315;53.336;55.932;2023-04-29T01:30:11;99845.44;;;14.42;45.50
70730;BME280;58315;53.336;55.932;2023-04-29T01:37:59;99844.22;;;14.36;45.31
70730;BME280;58315;53.336;55.932;2023-04-29T01:40:42;99847.94;;;14.43;45.22
70730;BME280;58315;53.336;55.932;2023-04-29T01:43:20;99842.88;;;14.32;45.24
70730;BME280;58315;53.336;55.932;2023-04-29T01:45:47;99847.53;;;14.30;45.15
70730;BME280;58315;53.336;55.932;2023-04-29T01:48:15;99852.22;;;14.36;45.07
70730;BME280;58315;53.336;55.932;2023-04-29T01:50:43;99860.25;;;14.44;45.05
70730;BME280;58315;53.336;55.932;2023-04-29T01:53:14;99857.91;;;14.41;45.16
70730;BME280;58315;53.336;55.932;2023-04-29T01:55:40;99857.59;;;14.44;45.47
70730;BME280;58315;53.336;55.932;2023-04-29T01:58:18;99859.78;;;14.49;45.30
70730;BME280;58315;53.336;55.932;2023-04-29T02:00:56;99860.03;;;14.56;45.37
70730;BME280;58315;53.336;55.932;2023-04-29T02:03:23;99857.03;;;14.59;45.80
70730;BME280;58315;53.336;55.932;2023-04-29T02:05:53;99862.41;;;14.67;45.47
70730;BME280;58315;53.336;55.932;2023-04-29T02:08:19;99864.13;;;14.76;45.58
70730;BME280;58315;53.336;55.932;2023-04-29T02:10:56;99865.88;;;15.02;45.52
70730;BME280;58315;53.336;55.932;2023-04-29T02:13:43;99879.69;;;14.97;45.62
70730;BME280;58315;53.336;55.932;2023-04-29T02:16:11;99876.56;;;15.10;45.54
70730;BME280;58315;53.336;55.932;2023-04-29T02:18:42;99874.97;;;15.25;45.53
70730;BME280;58315;53.336;55.932;2023-04-29T02:21:08;99884.63;;;15.34;45.28
70730;BME280;58315;53.336;55.932;2023-04-29T02:23:35;99878.69;;;15.49;45.37
70730;BME280;58315;53.336;55.932;2023-04-29T02:26:01;99881.41;;;15.65;45.18
70730;BME280;58315;53.336;55.932;2023-04-29T02:28:31;99874.78;;;15.77;45.19
70730;BME280;58315;53.336;55.932;2023-04-29T02:30:57;99887.59;;;15.90;45.21
70730;BME280;58315;53.336;55.932;2023-04-29T02:33:24;99884.09;;;15.98;45.32
70730;BME280;58315;53.336;55.932;2023-04-29T02:35:49;99886.47;;;16.09;45.17
70730;BME280;58315;53.336;55.932;2023-04-29T02:38:19;99889.44;;;16.22;44.95
70730;BME280;58315;53.336;55.932;2023-04-29T02:40:45;99899.78;;;16.33;45.26
70730;BME280;58315;53.336;55.932;2023-04-29T02:43:13;99891.44;;;16.45;45.48
70730;BME280;58315;53.336;55.932;2023-04-29T02:45:39;99898.91;;;16.57;45.49
70730;BME280;58315;53.336;55.932;2023-04-29T02:48:06;99897.22;;;16.73;45.56
70730;BME280;58315;53.336;55.932;2023-04-29T02:50:32;99899.03;;;16.88;45.32
70730;BME280;58315;53.336;55.932;2023-04-29T02:52:59;99904.19;;;16.98;45.46
70730;BME280;58315;53.336;55.932;2023-04-29T02:55:26;99906.97;;;17.13;45.37
70730;BME280;58315;53.336;55.932;2023-04-29T02:57:54;99907.06;;;17.28;45.31
70730;BME280;58315;53.336;55.932;2023-04-29T03:00:20;99903.94;;;17.16;45.93
70730;BME280;58315;53.336;55.932;2023-04-29T03:02:46;99906.06;;;17.29;45.51
70730;BME280;58315;53.336;55.932;2023-04-29T03:05:13;99911.94;;;17.55;45.17
70730;BME280;58315;53.336;55.932;2023-04-29T03:07:40;99907.66;;;17.69;45.26
70730;BME280;58315;53.336;55.932;2023-04-29T03:10:07;99912.47;;;17.82;45.24
70730;BME280;58315;53.336;55.932;2023-04-29T03:12:35;99918.25;;;17.94;44.92
70730;BME280;58315;53.336;55.932;2023-04-29T03:15:02;99916.47;;;17.86;45.23
70730;BME280;58315;53.336;55.932;2023-04-29T03:17:30;99921.31;;;17.82;45.33
70730;BME280;58315;53.336;55.932;2023-04-29T03:19:56;99918.50;;;18.07;45.28
70730;BME280;58315;53.336;55.932;2023-04-29T03:22:22;99923.25;;;18.35;45.04
70730;BME280;58315;53.336;55.932;2023-04-29T03:24:48;99931.41;;;19.38;43.82
70730;BME280;58315;53.336;55.932;2023-04-29T03:27:14;99920.25;;;20.85;41.06
70730;BME280;58315;53.336;55.932;2023-04-29T03:29:41;99934.69;;;22.34;39.77
70730;BME280;58315;53.336;55.932;2023-04-29T03:32:08;99930.72;;;24.00;38.41
70730;BME280;58315;53.336;55.932;2023-04-29T03:34:34;99936.19;;;25.48;35.86
70730;BME280;58315;53.336;55.932;2023-04-29T03:37:13;99938.84;;;26.81;32.02
70730;BME280;58315;53.336;55.932;2023-04-29T03:39:45;99940.50;;;27.57;31.28
70730;BME280;58315;53.336;55.932;2023-04-29T03:42:13;99944.03;;;28.15;30.37
70730;BME280;58315;53.336;55.932;2023-04-29T03:44:39;99941.97;;;28.05;29.84
70730;BME280;58315;53.336;55.932;2023-04-29T03:47:05;99949.63;;;28.08;29.82
70730;BME280;58315;53.336;55.932;2023-04-29T03:49:31;99944.44;;;28.07;29.56
70730;BME280;58315;53.336;55.932;2023-04-29T03:51:57;99942.31;;;28.76;29.61
70730;BME280;58315;53.336;55.932;2023-04-29T03:54:24;99949.50;;;29.43;28.73
70730;BME280;58315;53.336;55.932;2023-04-29T03:56:50;99940.72;;;29.58;28.32
70730;BME280;58315;53.336;55.932;2023-04-29T03:59:17;99947.91;;;29.91;28.11
70730;BME280;58315;53.336;55.932;2023-04-29T04:01:43;99950.38;;;30.20;27.74
70730;BME280;58315;53.336;55.932;2023-04-29T04:04:09;99951.94;;;30.75;27.66
70730;BME280;58315;53.336;55.932;2023-04-29T04:06:39;99958.13;;;31.60;26.17
70730;BME280;58315;53.336;55.932;2023-04-29T04:09:05;99948.97;;;32.17;25.99
70730;BME280;58315;53.336;55.932;2023-04-29T04:11:32;99949.25;;;32.11;25.10
70730;BME280;58315;53.336;55.932;2023-04-29T04:14:01;99950.09;;;32.37;25.26
70730;BME280;58315;53.336;55.932;2023-04-29T04:16:29;99950.03;;;32.98;25.25
70730;BME280;58315;53.336;55.932;2023-04-29T04:18:55;99949.13;;;33.28;24.41
70730;BME280;58315;53.336;55.932;2023-04-29T04:21:21;99952.13;;;33.27;24.91
70730;BME280;58315;53.336;55.932;2023-04-29T04:23:56;99946.09;;;33.30;24.21
70730;BME280;58315;53.336;55.932;2023-04-29T04:26:23;99947.31;;;33.03;23.83
70730;BME280;58315;53.336;55.932;2023-04-29T04:29:07;99953.34;;;33.00;25.12
70730;BME280;58315;53.336;55.932;2023-04-29T04:31:47;99955.34;;;33.49;23.94
70730;BME280;58315;53.336;55.932;2023-04-29T04:34:15;99948.81;;;33.40;23.84
70730;BME280;58315;53.336;55.932;2023-04-29T04:36:42;99944.75;;;33.82;24.09
70730;BME280;58315;53.336;55.932;2023-04-29T04:39:08;99960.44;;;34.21;23.53
70730;BME280;58315;53.336;55.932;2023-04-29T04:41:34;99944.72;;;33.92;23.26
70730;BME280;58315;53.336;55.932;2023-04-29T04:44:01;99950.03;;;34.18;23.12
70730;BME280;58315;53.336;55.932;2023-04-29T04:46:50;99953.63;;;34.82;23.38
70730;BME280;58315;53.336;55.932;2023-04-29T04:49:39;99963.31;;;35.46;21.86
70730;BME280;58315;53.336;55.932;2023-04-29T04:52:06;99953.19;;;35.22;21.99
70730;BME280;58315;53.336;55.932;2023-04-29T04:54:32;99954.94;;;34.84;22.36
70730;BME280;58315;53.336;55.932;2023-04-29T04:57:12;99945.38;;;35.11;22.12
70730;BME280;58315;53.336;55.932;2023-04-29T04:59:38;99952.31;;;35.27;22.01
70730;BME280;58315;53.336;55.932;2023-04-29T05:02:04;99944.50;;;34.86;22.60
70730;BME280;58315;53.336;55.932;2023-04-29T05:04:30;99940.63;;;35.16;22.42
70730;BME280;58315;53.336;55.932;2023-04-29T05:06:56;99943.72;;;35.34;22.14
70730;BME280;58315;53.336;55.932;2023-04-29T05:09:25;99949.13;;;35.63;21.80
70730;BME280;58315;53.336;55.932;2023-04-29T05:11:51;99948.09;;;35.59;21.54
70730;BME280;58315;53.336;55.932;2023-04-29T05:14:19;99942.34;;;36.50;20.61
70730;BME280;58315;53.336;55.932;2023-04-29T05:16:45;99949.53;;;36.13;21.25
70730;BME280;58315;53.336;55.932;2023-04-29T05:19:12;99946.72;;;36.32;20.50
70730;BME280;58315;53.336;55.932;2023-04-29T05:21:40;99956.59;;;36.00;21.29
70730;BME280;58315;53.336;55.932;2023-04-29T05:24:08;99948.56;;;36.36;21.15
70730;BME280;58315;53.336;55.932;2023-04-29T05:26:34;99941.03;;;36.42;20.92
70730;BME280;58315;53.336;55.932;2023-04-29T05:29:01;99951.22;;;36.41;20.75
70730;BME280;58315;53.336;55.932;2023-04-29T05:31:29;99963.31;;;35.70;20.52
70730;BME280;58315;53.336;55.932;2023-04-29T05:34:02;99945.56;;;35.38;21.31
70730;BME280;58315;53.336;55.932;2023-04-29T05:36:28;99961.28;;;36.00;21.00
70730;BME280;58315;53.336;55.932;2023-04-29T05:38:56;99950.25;;;35.62;21.13
70730;BME280;58315;53.336;55.932;2023-04-29T05:41:22;99950.63;;;35.93;21.07
70730;BME280;58315;53.336;55.932;2023-04-29T05:44:06;99935.00;;;36.59;20.08
70730;BME280;58315;53.336;55.932;2023-04-29T05:46:33;99937.03;;;36.20;20.45
70730;BME280;58315;53.336;55.932;2023-04-29T05:48:59;99946.13;;;36.54;19.74
70730;BME280;58315;53.336;55.932;2023-04-29T05:51:25;99935.00;;;36.26;19.57
70730;BME280;58315;53.336;55.932;2023-04-29T05:53:53;99930.56;;;35.73;19.61
70730;BME280;58315;53.336;55.932;2023-04-29T05:56:19;99944.69;;;36.37;19.61
70730;BME280;58315;53.336;55.932;2023-04-29T05:58:47;99941.56;;;36.44;19.14
70730;BME280;58315;53.336;55.932;2023-04-29T06:01:13;99936.44;;;36.37;19.76
70730;BME280;58315;53.336;55.932;2023-04-29T06:03:39;99935.16;;;36.16;19.44
70730;BME280;58315;53.336;55.932;2023-04-29T06:06:25;99945.97;;;35.50;19.99
70730;BME280;58315;53.336;55.932;2023-04-29T06:09:09;99935.94;;;35.17;20.54
70730;BME280;58315;53.336;55.932;2023-04-29T06:11:35;99941.03;;;34.46;20.92
70730;BME280;58315;53.336;55.932;2023-04-29T06:14:02;99931.06;;;33.82;21.14
70730;BME280;58315;53.336;55.932;2023-04-29T06:16:28;99930.94;;;32.57;22.38
70730;BME280;58315;53.336;55.932;2023-04-29T06:18:55;99931.78;;;30.81;23.37
70730;BME280;58315;53.336;55.932;2023-04-29T06:21:21;99934.47;;;30.12;24.32
70730;BME280;58315;53.336;55.932;2023-04-29T06:23:47;99927.22;;;29.24;24.63
70730;BME280;58315;53.336;55.932;2023-04-29T06:26:16;99927.28;;;27.89;26.33
70730;BME280;58315;53.336;55.932;2023-04-29T06:28:44;99932.88;;;27.71;27.08
70730;BME280;58315;53.336;55.932;2023-04-29T06:31:11;99935.06;;;27.17;27.06
70730;BME280;58315;53.336;55.932;2023-04-29T06:33:38;99940.19;;;26.36;28.32
70730;BME280;58315;53.336;55.932;2023-04-29T06:36:05;99927.50;;;26.07;28.48
70730;BME280;58315;53.336;55.932;2023-04-29T06:38:52;99926.25;;;26.09;29.18
70730;BME280;58315;53.336;55.932;2023-04-29T06:41:24;99924.34;;;26.10;29.53
70730;BME280;58315;53.336;55.932;2023-04-29T06:44:12;99924.44;;;26.03;29.48
70730;BME280;58315;53.336;55.932;2023-04-29T06:46:58;99919.66;;;26.17;29.20
70730;BME280;58315;53.336;55.932;2023-04-29T06:49:48;99918.84;;;26.28;28.99
70730;BME280;58315;53.336;55.932;2023-04-29T06:52:14;99928.75;;;26.23;28.98
70730;BME280;58315;53.336;55.932;2023-04-29T06:54:42;99930.81;;;25.97;28.93
70730;BME280;58315;53.336;55.932;2023-04-29T06:57:09;99923.22;;;25.57;29.60
70730;BME280;58315;53.336;55.932;2023-04-29T06:59:36;99918.66;;;25.69;29.80
70730;BME280;58315;53.336;55.932;2023-04-29T07:02:03;99933.22;;;25.57;30.07
70730;BME280;58315;53.336;55.932;2023-04-29T07:04:29;99926.19;;;25.67;30.24
70730;BME280;58315;53.336;55.932;2023-04-29T07:06:56;99925.72;;;25.70;29.66
70730;BME280;58315;53.336;55.932;2023-04-29T07:09:24;99920.78;;;25.67;30.21
70730;BME280;58315;53.336;55.932;2023-04-29T07:11:53;99918.34;;;26.08;29.05
70730;BME280;58315;53.336;55.932;2023-04-29T07:14:20;99921.09;;;26.19;28.68
70730;BME280;58315;53.336;55.932;2023-04-29T07:16:55;99918.13;;;26.21;28.71
70730;BME280;58315;53.336;55.932;2023-04-29T07:19:22;99922.50;;;26.22;28.91
70730;BME280;58315;53.336;55.932;2023-04-29T07:21:48;99922.53;;;25.92;29.09
70730;BME280;58315;53.336;55.932;2023-04-29T07:24:15;99921.47;;;25.44;29.34
70730;BME280;58315;53.336;55.932;2023-04-29T07:26:44;99919.59;;;25.08;28.96
70730;BME280;58315;53.336;55.932;2023-04-29T07:29:14;99914.19;;;24.90;29.93
70730;BME280;58315;53.336;55.932;2023-04-29T07:31:40;99921.22;;;25.16;29.99
70730;BME280;58315;53.336;55.932;2023-04-29T07:34:07;99912.34;;;25.09;29.88
70730;BME280;58315;53.336;55.932;2023-04-29T07:36:34;99901.69;;;25.14;30.33
70730;BME280;58315;53.336;55.932;2023-04-29T07:39:00;99912.34;;;25.45;29.86
70730;BME280;58315;53.336;55.932;2023-04-29T07:41:27;99905.19;;;25.33;28.73
70730;BME280;58315;53.336;55.932;2023-04-29T07:43:53;99906.19;;;25.20;29.54
70730;BME280;58315;53.336;55.932;2023-04-29T07:46:20;99910.25;;;25.29;30.01
70730;BME280;58315;53.336;55.932;2023-04-29T07:48:47;99904.97;;;24.97;30.41
70730;BME280;58315;53.336;55.932;2023-04-29T07:51:13;99904.88;;;25.04;30.17
70730;BME280;58315;53.336;55.932;2023-04-29T07:53:42;99908.97;;;25.32;30.06
70730;BME280;58315;53.336;55.932;2023-04-29T07:56:08;99905.34;;;25.56;30.17
70730;BME280;58315;53.336;55.932;2023-04-29T07:58:38;99898.41;;;25.90;30.11
70730;BME280;58315;53.336;55.932;2023-04-29T08:01:08;99899.88;;;26.28;29.18
70730;BME280;58315;53.336;55.932;2023-04-29T08:03:37;99901.22;;;26.37;27.87
70730;BME280;58315;53.336;55.932;2023-04-29T08:06:05;99894.06;;;25.89;27.78
70730;BME280;58315;53.336;55.932;2023-04-29T08:08:33;99901.38;;;25.89;28.59
70730;BME280;58315;53.336;55.932;2023-04-29T08:11:00;99898.50;;;25.84;27.98
70730;BME280;58315;53.336;55.932;2023-04-29T08:13:28;99897.59;;;25.90;28.17
70730;BME280;58315;53.336;55.932;2023-04-29T08:15:54;99889.94;;;25.98;28.56
70730;BME280;58315;53.336;55.932;2023-04-29T08:18:21;99892.38;;;26.18;28.51
70730;BME280;58315;53.336;55.932;2023-04-29T08:20:47;99884.47;;;26.29;28.77
70730;BME280;58315;53.336;55.932;2023-04-29T08:23:17;99892.47;;;26.35;28.88
70730;BME280;58315;53.336;55.932;2023-04-29T08:25:44;99895.22;;;25.82;29.30
70730;BME280;58315;53.336;55.932;2023-04-29T08:28:10;99876.56;;;26.04;28.99
70730;BME280;58315;53.336;55.932;2023-04-29T08:30:40;99895.38;;;26.10;27.70
70730;BME280;58315;53.336;55.932;2023-04-29T08:33:09;99891.59;;;25.69;27.74
70730;BME280;58315;53.336;55.932;2023-04-29T08:35:37;99885.81;;;25.66;28.22
70730;BME280;58315;53.336;55.932;2023-04-29T08:38:04;99884.41;;;25.82;28.05
70730;BME280;58315;53.336;55.932;2023-04-29T08:40:35;99883.25;;;26.01;27.75
70730;BME280;58315;53.336;55.932;2023-04-29T08:43:04;99891.19;;;26.14;27.92
70730;BME280;58315;53.336;55.932;2023-04-29T08:45:31;99878.94;;;26.12;28.10
70730;BME280;58315;53.336;55.932;2023-04-29T08:48:01;99884.69;;;26.15;28.49
70730;BME280;58315;53.336;55.932;2023-04-29T08:50:29;99883.97;;;25.96;28.56
70730;BME280;58315;53.336;55.932;2023-04-29T08:52:56;99881.28;;;25.78;28.90
70730;BME280;58315;53.336;55.932;2023-04-29T08:55:22;99876.56;;;26.04;28.82
70730;BME280;58315;53.336;55.932;2023-04-29T08:57:50;99872.25;;;26.38;28.58
70730;BME280;58315;53.336;55.932;2023-04-29T09:00:19;99878.88;;;26.77;28.32
70730;BME280;58315;53.336;55.932;2023-04-29T09:02:50;99871.78;;;26.76;28.57
70730;BME280;58315;53.336;55.932;2023-04-29T09:05:18;99874.97;;;26.73;27.60
70730;BME280;58315;53.336;55.932;2023-04-29T09:07:45;99876.50;;;26.69;27.16
70730;BME280;58315;53.336;55.932;2023-04-29T09:10:11;99874.94;;;26.97;26.57
70730;BME280;58315;53.336;55.932;2023-04-29T09:12:38;99865.63;;;26.92;26.34
70730;BME280;58315;53.336;55.932;2023-04-29T09:15:05;99877.31;;;26.81;26.39
70730;BME280;58315;53.336;55.932;2023-04-29T09:17:45;99875.88;;;26.90;26.93
70730;BME280;58315;53.336;55.932;2023-04-29T09:25:21;99875.84;;;25.96;27.56
70730;BME280;58315;53.336;55.932;2023-04-29T09:27:47;99864.06;;;26.03;28.00
70730;BME280;58315;53.336;55.932;2023-04-29T09:30:14;99868.00;;;26.30;27.59
70730;BME280;58315;53.336;55.932;2023-04-29T09:32:44;99862.94;;;26.22;27.79
70730;BME280;58315;53.336;55.932;2023-04-29T09:35:25;99859.06;;;26.30;27.87
70730;BME280;58315;53.336;55.932;2023-04-29T09:37:53;99858.09;;;26.36;27.94
70730;BME280;58315;53.336;55.932;2023-04-29T09:40:33;99865.31;;;26.54;27.54
70730;BME280;58315;53.336;55.932;2023-04-29T09:43:00;99867.41;;;26.75;27.23
70730;BME280;58315;53.336;55.932;2023-04-29T09:45:34;99863.78;;;26.81;26.51
70730;BME280;58315;53.336;55.932;2023-04-29T09:48:02;99856.22;;;26.36;27.33
70730;BME280;58315;53.336;55.932;2023-04-29T09:50:33;99865.19;;;26.60;27.52
70730;BME280;58315;53.336;55.932;2023-04-29T09:53:02;99869.06;;;26.76;27.29
70730;BME280;58315;53.336;55.932;2023-04-29T09:55:29;99861.53;;;26.66;26.88
70730;BME280;58315;53.336;55.932;2023-04-29T09:57:56;99861.88;;;26.82;26.83
70730;BME280;58315;53.336;55.932;2023-04-29T10:00:24;99856.78;;;26.97;26.30
70730;BME280;58315;53.336;55.932;2023-04-29T10:02:56;99859.25;;;26.99;26.16
70730;BME280;58315;53.336;55.932;2023-04-29T10:05:26;99876.94;;;26.89;25.90
70730;BME280;58315;53.336;55.932;2023-04-29T10:07:53;99857.41;;;26.64;25.93
70730;BME280;58315;53.336;55.932;2023-04-29T10:10:20;99864.25;;;26.78;25.84
70730;BME280;58315;53.336;55.932;2023-04-29T10:12:48;99861.78;;;26.77;25.44
70730;BME280;58315;53.336;55.932;2023-04-29T10:15:34;99858.22;;;26.88;25.90
70730;BME280;58315;53.336;55.932;2023-04-29T10:18:48;99852.16;;;26.98;25.57
70730;BME280;58315;53.336;55.932;2023-04-29T10:20:56;99850.22;;;26.81;25.60
70730;BME280;58315;53.336;55.932;2023-04-29T10:23:24;99854.09;;;26.85;25.28
70730;BME280;58315;53.336;55.932;2023-04-29T10:25:51;99863.50;;;26.94;25.21
70730;BME280;58315;53.336;55.932;2023-04-29T10:28:19;99852.56;;;26.89;25.29
70730;BME280;58315;53.336;55.932;2023-04-29T10:30:53;99852.56;;;26.89;25.84
70730;BME280;58315;53.336;55.932;2023-04-29T10:33:20;99859.75;;;26.72;25.79
70730;BME280;58315;53.336;55.932;2023-04-29T10:35:48;99848.34;;;26.70;25.82
70730;BME280;58315;53.336;55.932;2023-04-29T10:38:38;99848.56;;;26.80;25.86
70730;BME280;58315;53.336;55.932;2023-04-29T10:41:13;99854.34;;;26.72;25.67
70730;BME280;58315;53.336;55.932;2023-04-29T10:43:41;99852.25;;;26.62;25.65
70730;BME280;58315;53.336;55.932;2023-04-29T10:46:24;99842.94;;;26.70;25.34
70730;BME280;58315;53.336;55.932;2023-04-29T10:49:00;99841.72;;;26.78;25.29
70730;BME280;58315;53.336;55.932;2023-04-29T10:51:32;99848.44;;;26.75;25.19
70730;BME280;58315;53.336;55.932;2023-04-29T10:56:35;99840.13;;;27.05;24.99
70730;BME280;58315;53.336;55.932;2023-04-29T10:59:02;99838.66;;;26.86;24.90
70730;BME280;58315;53.336;55.932;2023-04-29T11:01:49;99842.50;;;27.02;25.18
70730;BME280;58315;53.336;55.932;2023-04-29T11:04:19;99835.94;;;26.86;25.08
70730;BME280;58315;53.336;55.932;2023-04-29T11:07:05;99836.53;;;26.88;25.10
70730;BME280;58315;53.336;55.932;2023-04-29T11:09:34;99838.63;;;26.98;24.43
70730;BME280;58315;53.336;55.932;2023-04-29T11:12:04;99837.72;;;26.80;24.86
70730;BME280;58315;53.336;55.932;2023-04-29T11:14:42;99834.34;;;27.02;24.97
70730;BME280;58315;53.336;55.932;2023-04-29T11:17:13;99833.06;;;27.04;24.99
70730;BME280;58315;53.336;55.932;2023-04-29T11:19:44;99833.53;;;27.01;24.25
70730;BME280;58315;53.336;55.932;2023-04-29T11:25:07;99844.31;;;26.84;24.23
70730;BME280;58315;53.336;55.932;2023-04-29T11:27:36;99841.25;;;26.45;24.02
70730;BME280;58315;53.336;55.932;2023-04-29T11:30:05;99837.03;;;26.38;24.00
70730;BME280;58315;53.336;55.932;2023-04-29T11:32:38;99836.56;;;26.53;24.04
70730;BME280;58315;53.336;55.932;2023-04-29T11:35:09;99830.53;;;26.74;24.40
70730;BME280;58315;53.336;55.932;2023-04-29T11:37:36;99836.47;;;26.59;23.99
70730;BME280;58315;53.336;55.932;2023-04-29T11:40:04;99837.72;;;26.68;23.69
70730;BME280;58315;53.336;55.932;2023-04-29T11:42:34;99830.41;;;26.69;24.10
70730;BME280;58315;53.336;55.932;2023-04-29T11:45:01;99833.03;;;26.64;24.58
70730;BME280;58315;53.336;55.932;2023-04-29T11:47:31;99817.59;;;26.64;24.06
70730;BME280;58315;53.336;55.932;2023-04-29T11:52:31;99830.16;;;26.82;24.24
70730;BME280;58315;53.336;55.932;2023-04-29T11:54:58;99824.97;;;26.92;24.03
70730;BME280;58315;53.336;55.932;2023-04-29T11:57:25;99826.34;;;27.07;23.88
70730;BME280;58315;53.336;55.932;2023-04-29T11:59:51;99830.47;;;26.98;23.96
70730;BME280;58315;53.336;55.932;2023-04-29T12:02:32;99832.47;;;27.14;23.91
70730;BME280;58315;53.336;55.932;2023-04-29T12:04:58;99837.53;;;27.10;23.78
70730;BME280;58315;53.336;55.932;2023-04-29T12:07:28;99836.38;;;26.94;24.02
70730;BME280;58315;53.336;55.932;2023-04-29T12:09:55;99828.56;;;27.10;23.82
70730;BME280;58315;53.336;55.932;2023-04-29T12:12:22;99839.78;;;27.02;23.51
70730;BME280;58315;53.336;55.932;2023-04-29T12:14:49;99834.75;;;26.93;23.04
70730;BME280;58315;53.336;55.932;2023-04-29T12:17:16;99834.34;;;27.02;22.89
70730;BME280;58315;53.336;55.932;2023-04-29T12:19:43;99827.97;;;27.08;23.76
70730;BME280;58315;53.336;55.932;2023-04-29T12:22:09;99832.09;;;27.22;23.90
70730;BME280;58315;53.336;55.932;2023-04-29T12:24:36;99818.81;;;27.37;23.62
70730;BME280;58315;53.336;55.932;2023-04-29T12:27:03;99830.19;;;27.23;23.76
70730;BME280;58315;53.336;55.932;2023-04-29T12:29:32;99816.44;;;27.41;23.50
70730;BME280;58315;53.336;55.932;2023-04-29T12:31:58;99822.69;;;27.01;22.79
70730;BME280;58315;53.336;55.932;2023-04-29T12:34:28;99812.31;;;26.98;22.94
70730;BME280;58315;53.336;55.932;2023-04-29T12:36:56;99817.53;;;27.00;23.38
70730;BME280;58315;53.336;55.932;2023-04-29T12:39:23;99821.19;;;26.93;23.74
70730;BME280;58315;53.336;55.932;2023-04-29T12:41:54;99829.53;;;27.04;23.87
70730;BME280;58315;53.336;55.932;2023-04-29T12:44:22;99804.44;;;26.97;23.31
70730;BME280;58315;53.336;55.932;2023-04-29T12:46:49;99803.28;;;26.92;23.05
70730;BME280;58315;53.336;55.932;2023-04-29T12:49:18;99807.16;;;26.97;23.17
70730;BME280;58315;53.336;55.932;2023-04-29T12:51:45;99799.00;;;26.97;23.21
70730;BME280;58315;53.336;55.932;2023-04-29T12:54:11;99798.75;;;27.10;23.44
70730;BME280;58315;53.336;55.932;2023-04-29T12:56:37;99799.47;;;27.17;23.80
70730;BME280;58315;53.336;55.932;2023-04-29T12:59:08;99790.34;;;27.23;23.87
70730;BME280;58315;53.336;55.932;2023-04-29T13:01:36;99795.91;;;27.16;23.84
70730;BME280;58315;53.336;55.932;2023-04-29T13:04:02;99798.16;;;27.08;23.61
70730;BME280;58315;53.336;55.932;2023-04-29T13:06:31;99795.22;;;26.98;24.03
70730;BME280;58315;53.336;55.932;2023-04-29T13:08:57;99790.91;;;26.85;23.58
70730;BME280;58315;53.336;55.932;2023-04-29T13:11:23;99800.22;;;26.89;23.69
70730;BME280;58315;53.336;55.932;2023-04-29T13:13:49;99802.16;;;27.05;23.32
70730;BME280;58315;53.336;55.932;2023-04-29T13:16:16;99795.34;;;27.03;23.68
70730;BME280;58315;53.336;55.932;2023-04-29T13:18:44;99796.50;;;27.07;23.31
70730;BME280;58315;53.336;55.932;2023-04-29T13:21:10;99790.50;;;27.05;23.40
70730;BME280;58315;53.336;55.932;2023-04-29T13:23:36;99796.25;;;27.08;23.32
70730;BME280;58315;53.336;55.932;2023-04-29T13:26:02;99790.53;;;27.33;23.20
70730;BME280;58315;53.336;55.932;2023-04-29T13:28:28;99790.94;;;27.42;22.79